Weather at El Minya Airport

Public forecast

Using degrees Celsius for public forecast. Weather courtesy of forecast.io.

Closest aviation weather report (METAR) to El Minya Airport

Closest report is Asyut International Airport, 64.9 nm (120.2 km) SSE. Retrieved 2021/01/19 04:00 UTC (16 minutes ago):

HEAT 190400Z 00000KT CAVOK 08/02 Q1023 NOSIG

Closest aviation forecast (TAF) to El Minya Airport

Closest forecast is Asyut International Airport, 64.9 nm (120.2 km) SSE. Retrieved 2021-01-19 00:00 UTC (4 hours ago):

TAF HEAT 182300Z 1900/2006 31010KT CAVOK